Time;durP1;ratioP1;P1;durP2;ratioP2;P2;SDS_P1;SDS_P2;PMS_P1;PMS_P2;Temp;Humidity;BMP_temperature;BMP_pressure;BME280_temperature;BME280_humidity;BME280_pressure;Samples;Min_cycle;Max_cycle;Signal;HPM_P1;HPM_P2
2023/01/10 00:00:28;;;;;;;19.30;8.30;;;;;;;2.45;100.00;101372.72;5186015;28;20021;-66
2023/01/10 00:02:58;;;;;;;11.18;6.18;;;;;;;2.40;100.00;101375.13;5203464;28;20025;-66
2023/01/10 00:05:29;;;;;;;7.03;6.32;;;;;;;2.30;100.00;101364.78;5203772;28;20033;-66
2023/01/10 00:08:01;;;;;;;9.88;6.95;;;;;;;2.39;100.00;101379.63;5204130;28;20524;-66
2023/01/10 00:10:32;;;;;;;7.38;6.40;;;;;;;2.40;100.00;101370.59;5203564;28;20045;-66
2023/01/10 00:15:54;;;;;;;11.48;6.18;;;;;;;2.55;100.00;101389.22;5203572;28;20048;-66
2023/01/10 00:18:24;;;;;;;13.07;7.68;;;;;;;2.62;100.00;101404.25;5203572;28;20129;-66
2023/01/10 00:20:55;;;;;;;12.95;6.72;;;;;;;2.72;100.00;101395.94;5203441;28;20520;-66
2023/01/10 00:23:25;;;;;;;7.97;7.28;;;;;;;2.71;100.00;101400.44;5203496;28;20033;-67
2023/01/10 00:25:56;;;;;;;13.15;8.30;;;;;;;2.67;100.00;101391.19;5203454;28;20018;-66
2023/01/10 00:28:26;;;;;;;10.40;6.60;;;;;;;2.67;100.00;101409.00;5195681;28;20032;-66
2023/01/10 00:31:00;;;;;;;13.45;6.10;;;;;;;2.66;100.00;101418.84;5183090;28;20048;-66
2023/01/10 00:33:39;;;;;;;4.75;4.50;;;;;;;2.73;100.00;101408.25;5182415;28;20037;-66
2023/01/10 00:36:10;;;;;;;10.98;7.18;;;;;;;2.80;100.00;101408.31;5183083;28;20102;-65
2023/01/10 00:38:40;;;;;;;13.50;7.47;;;;;;;2.88;100.00;101424.22;5183386;28;20742;-66
2023/01/10 00:43:55;;;;;;;25.88;5.50;;;;;;;2.95;100.00;101430.41;5183053;28;20057;-66
2023/01/10 00:44:02;;;;;;;10.85;6.05;;;;;;;3.05;100.00;101428.25;5182443;28;20109;-66
2023/01/10 00:46:32;;;;;;;11.57;7.22;;;;;;;3.08;100.00;101427.84;5183062;28;20025;-66
2023/01/10 00:49:07;;;;;;;17.98;6.50;;;;;;;3.13;100.00;101428.13;5183107;28;20026;-66
2023/01/10 00:51:37;;;;;;;12.05;6.57;;;;;;;3.41;100.00;101454.81;5184445;28;20394;-66
2023/01/10 00:54:08;;;;;;;10.25;5.53;;;;;;;3.49;100.00;101453.81;5185983;28;20045;-66
2023/01/10 00:56:39;;;;;;;10.55;6.40;;;;;;;3.50;100.00;101442.94;5186177;28;20020;-66
2023/01/10 00:59:09;;;;;;;5.10;4.75;;;;;;;3.53;100.00;101452.41;5186436;28;20393;-66
2023/01/10 01:01:40;;;;;;;10.25;6.30;;;;;;;3.45;100.00;101448.06;5189371;28;20068;-67
2023/01/10 01:04:10;;;;;;;9.07;6.95;;;;;;;3.31;100.00;101448.97;5206577;28;20381;-67
2023/01/10 01:06:43;;;;;;;9.85;5.18;;;;;;;3.12;100.00;101439.81;5206379;28;20076;-65
2023/01/10 01:09:13;;;;;;;20.80;6.05;;;;;;;3.16;100.00;101462.41;5206749;28;20033;-66
2023/01/10 01:11:44;;;;;;;5.57;5.10;;;;;;;3.16;100.00;101467.75;5206663;28;20033;-66
2023/01/10 01:14:14;;;;;;;13.00;5.72;;;;;;;3.13;100.00;101468.13;5206417;28;20032;-67
2023/01/10 01:16:45;;;;;;;7.07;5.47;;;;;;;3.06;100.00;101472.59;5188656;28;20025;-65
2023/01/10 01:19:15;;;;;;;8.32;5.57;;;;;;;2.98;100.00;101462.03;5206568;28;20503;-66
2023/01/10 01:21:46;;;;;;;16.27;6.13;;;;;;;3.01;100.00;101475.00;5206547;28;20021;-66
2023/01/10 01:24:16;;;;;;;12.20;5.00;;;;;;;3.02;100.00;101482.81;5206123;28;20468;-67
2023/01/10 01:26:47;;;;;;;9.93;6.07;;;;;;;3.08;100.00;101491.06;5205943;28;20018;-67
2023/01/10 01:29:17;;;;;;;5.55;5.07;;;;;;;3.13;100.00;101502.81;5200689;28;20608;-67
2023/01/10 01:31:47;;;;;;;5.88;5.32;;;;;;;3.18;100.00;101487.03;5190661;28;20404;-66
2023/01/10 01:34:18;;;;;;;13.05;5.90;;;;;;;3.32;100.00;101507.50;5226321;28;20142;-66
2023/01/10 01:36:50;;;;;;;12.07;7.00;;;;;;;3.38;100.00;101500.56;5226912;28;20032;-66
2023/01/10 01:39:20;;;;;;;6.13;5.57;;;;;;;3.33;100.00;101479.78;5226511;28;20021;-66
2023/01/10 01:41:56;;;;;;;7.45;5.35;;;;;;;3.42;100.00;101499.19;5226394;28;20048;-67
2023/01/10 01:44:32;;;;;;;5.75;4.95;;;;;;;3.34;100.00;101494.78;5226332;28;20025;-66
2023/01/10 01:47:25;;;;;;;12.18;6.10;;;;;;;3.05;100.00;101478.94;5208681;28;20032;-66
2023/01/10 01:49:55;;;;;;;7.07;5.70;;;;;;;2.96;100.00;101490.75;5226335;28;20021;-67
2023/01/10 01:52:33;;;;;;;20.27;6.40;;;;;;;2.84;100.00;101494.94;5225739;28;20035;-69
2023/01/10 01:55:05;;;;;;;9.85;6.57;;;;;;;2.70;100.00;101501.97;5191434;28;20022;-67
2023/01/10 01:57:36;;;;;;;11.50;6.20;;;;;;;2.53;100.00;101476.56;5185220;28;20026;-67
2023/01/10 02:00:09;;;;;;;8.70;5.63;;;;;;;2.55;100.00;101507.34;5185372;28;20026;-67
2023/01/10 02:02:59;;;;;;;5.90;5.00;;;;;;;2.48;100.00;101506.44;5184860;28;20053;-66
2023/01/10 02:05:32;;;;;;;6.93;6.35;;;;;;;2.41;100.00;101518.03;5185140;28;20022;-67
2023/01/10 02:08:03;;;;;;;6.55;5.95;;;;;;;2.35;100.00;101528.41;5185296;28;20056;-66
2023/01/10 02:10:58;;;;;;;9.90;5.68;;;;;;;2.33;100.00;101529.63;5185096;28;20033;-66
2023/01/10 02:13:29;;;;;;;7.32;6.13;;;;;;;2.31;100.00;101531.66;5184413;28;20025;-66
2023/01/10 02:16:00;;;;;;;6.88;5.40;;;;;;;2.20;100.00;101522.28;5167543;28;20041;-66
2023/01/10 02:18:30;;;;;;;12.40;6.80;;;;;;;2.31;100.00;101537.00;5184884;28;20470;-66
2023/01/10 02:21:14;;;;;;;20.67;5.47;;;;;;;2.35;100.00;101519.59;5184944;28;20037;-66
2023/01/10 02:24:03;;;;;;;10.93;7.22;;;;;;;2.34;100.00;101520.59;5184579;28;20049;-66
2023/01/10 02:26:33;;;;;;;8.38;6.22;;;;;;;2.40;100.00;101519.88;5184985;28;20382;-67
2023/01/10 02:29:36;;;;;;;16.52;7.18;;;;;;;2.44;100.00;101515.81;5184372;28;20048;-67
2023/01/10 02:32:18;;;;;;;7.97;5.30;;;;;;;2.58;100.00;101520.31;5166698;28;20066;-67
2023/01/10 02:35:03;;;;;;;20.98;7.07;;;;;;;2.69;100.00;101530.47;5184323;28;20034;-66
2023/01/10 02:37:42;;;;;;;23.88;8.18;;;;;;;2.83;100.00;101527.97;5184464;28;20025;-66
2023/01/10 02:40:25;;;;;;;19.58;5.90;;;;;;;2.96;100.00;101536.09;5184396;28;20371;-66
2023/01/10 02:43:01;;;;;;;17.83;7.00;;;;;;;3.10;100.00;101547.75;5184105;28;20022;-66
2023/01/10 02:45:47;;;;;;;14.70;6.35;;;;;;;3.18;100.00;101551.09;5184269;28;20030;-66
2023/01/10 02:48:17;;;;;;;10.52;6.43;;;;;;;3.31;100.00;101566.41;5184911;28;20060;-66
2023/01/10 02:50:54;;;;;;;10.68;5.75;;;;;;;3.33;100.00;101554.53;5184010;28;20490;-66
2023/01/10 02:53:30;;;;;;;13.75;6.45;;;;;;;3.48;100.00;101562.47;5183311;28;20028;-67
2023/01/10 02:56:27;;;;;;;16.40;7.32;;;;;;;3.49;100.00;101552.59;5183894;28;20061;-66
2023/01/10 02:59:04;;;;;;;8.05;5.85;;;;;;;3.36;100.00;101516.78;5183697;28;20474;-66
2023/01/10 03:01:40;;;;;;;17.55;5.25;;;;;;;3.68;100.00;101559.97;5183920;28;20029;-66
2023/01/10 03:04:19;;;;;;;18.50;6.50;;;;;;;3.72;100.00;101563.91;5183691;28;20033;-66
2023/01/10 03:07:02;;;;;;;7.37;5.57;;;;;;;3.75;100.00;101570.72;5184216;28;20022;-67
2023/01/10 03:09:33;;;;;;;19.88;6.97;;;;;;;3.78;100.00;101581.00;5183842;28;20029;-66
2023/01/10 03:12:17;;;;;;;6.28;5.80;;;;;;;3.80;100.00;101579.78;5183795;28;20037;-66
2023/01/10 03:14:49;;;;;;;17.67;6.47;;;;;;;3.77;100.00;101574.81;5183243;28;20397;-66
2023/01/10 03:17:22;;;;;;;12.60;6.68;;;;;;;3.80;100.00;101571.75;5183896;28;20416;-66
2023/01/10 03:19:58;;;;;;;10.15;5.50;;;;;;;3.81;100.00;101580.59;5183441;28;20029;-66
2023/01/10 03:22:30;;;;;;;30.70;8.82;;;;;;;3.78;100.00;101589.00;5183324;28;20026;-66
2023/01/10 03:25:05;;;;;;;17.20;8.02;;;;;;;3.77;100.00;101582.00;5166165;28;20026;-66
2023/01/10 03:27:43;;;;;;;11.48;6.53;;;;;;;3.75;100.00;101595.59;5183479;28;20397;-66
2023/01/10 03:30:28;;;;;;;13.60;6.28;;;;;;;3.70;100.00;101595.34;5183721;28;20398;-67
2023/01/10 03:32:59;;;;;;;12.63;5.15;;;;;;;3.55;100.00;101579.38;5165723;28;20026;-66
2023/01/10 03:36:03;;;;;;;19.33;5.88;;;;;;;3.49;100.00;101587.31;5209796;22;20107;-65
2023/01/10 03:38:34;;;;;;;7.30;6.50;;;;;;;3.39;100.00;101588.47;5206917;28;20037;-64
2023/01/10 03:41:15;;;;;;;6.22;5.03;;;;;;;3.21;100.00;101589.91;5204218;28;20036;-64
2023/01/10 03:44:42;;;;;;;11.35;5.82;;;;;;;3.16;100.00;101601.19;5204261;28;20030;-64
2023/01/10 03:47:32;;;;;;;9.95;7.35;;;;;;;2.99;100.00;101611.25;5186118;28;20026;-64
2023/01/10 03:50:05;;;;;;;21.52;7.03;;;;;;;2.94;100.00;101610.16;5204518;28;20487;-64
2023/01/10 03:52:36;;;;;;;8.60;5.25;;;;;;;2.89;100.00;101615.22;5203348;28;20021;-64
2023/01/10 03:55:10;;;;;;;10.85;6.07;;;;;;;2.80;100.00;101611.84;5203713;28;20481;-65
2023/01/10 03:57:41;;;;;;;10.82;7.30;;;;;;;2.76;100.00;101623.91;5204042;28;20083;-65
2023/01/10 04:00:14;;;;;;;14.88;7.82;;;;;;;2.70;100.00;101624.63;5203561;28;20032;-65
2023/01/10 04:02:44;;;;;;;12.55;7.40;;;;;;;2.62;100.00;101630.06;5185591;28;20063;-65
2023/01/10 04:05:15;;;;;;;16.85;7.97;;;;;;;2.59;100.00;101636.63;5203469;28;20017;-65
2023/01/10 04:07:47;;;;;;;6.65;6.07;;;;;;;2.52;100.00;101630.38;5203776;28;20033;-65
2023/01/10 04:10:19;;;;;;;14.77;6.95;;;;;;;2.42;100.00;101627.13;5203611;28;20025;-66
2023/01/10 04:12:50;;;;;;;13.50;7.30;;;;;;;2.44;100.00;101635.78;5202817;28;20030;-65
2023/01/10 04:15:20;;;;;;;15.30;6.72;;;;;;;2.42;100.00;101629.81;5185727;28;20125;-65
2023/01/10 04:17:51;;;;;;;8.05;6.43;;;;;;;2.35;100.00;101627.03;5185984;28;20029;-65
2023/01/10 04:20:25;;;;;;;11.10;7.32;;;;;;;2.26;100.00;101630.00;5203482;28;20053;-65
2023/01/10 04:22:55;;;;;;;21.73;8.35;;;;;;;2.16;100.00;101634.75;5203119;28;20030;-65
2023/01/10 04:25:26;;;;;;;13.52;7.03;;;;;;;2.15;100.00;101649.91;5204858;28;20477;-64
2023/01/10 04:27:56;;;;;;;13.85;7.18;;;;;;;2.13;100.00;101657.25;5207615;28;20442;-64
2023/01/10 04:30:26;;;;;;;7.20;6.32;;;;;;;2.14;100.00;101669.56;5207833;28;20017;-64
2023/01/10 04:32:57;;;;;;;17.17;7.28;;;;;;;2.10;100.00;101683.41;5206726;28;20025;-64
2023/01/10 04:35:27;;;;;;;14.07;6.15;;;;;;;2.08;100.00;101667.63;5207370;28;20026;-64
2023/01/10 04:37:58;;;;;;;19.67;8.50;;;;;;;2.14;100.00;101666.06;5207206;28;20056;-64
2023/01/10 04:40:28;;;;;;;12.50;6.28;;;;;;;2.09;100.00;101663.13;5207503;28;20017;-64
2023/01/10 04:42:58;;;;;;;16.80;8.98;;;;;;;2.07;100.00;101662.47;5206768;28;20543;-65
2023/01/10 04:45:29;;;;;;;10.82;6.22;;;;;;;2.09;100.00;101677.25;5207297;28;20059;-64
2023/01/10 04:47:59;;;;;;;8.07;6.90;;;;;;;2.06;100.00;101682.94;5207712;28;20148;-64
2023/01/10 04:50:30;;;;;;;22.95;9.50;;;;;;;2.01;100.00;101674.69;5207558;28;20032;-64
2023/01/10 04:53:00;;;;;;;12.02;7.57;;;;;;;2.06;100.00;101672.28;5206760;28;20022;-66
2023/01/10 04:55:32;;;;;;;10.50;6.50;;;;;;;2.06;100.00;101682.13;5207289;28;20052;-65
2023/01/10 04:58:03;;;;;;;18.20;8.10;;;;;;;2.04;100.00;101682.31;5207243;28;20053;-65
2023/01/10 05:00:34;;;;;;;17.50;8.30;;;;;;;2.04;100.00;101692.94;5207383;28;20048;-65
2023/01/10 05:03:04;;;;;;;16.88;7.75;;;;;;;2.05;100.00;101705.25;5188987;28;20025;-64
2023/01/10 05:05:34;;;;;;;20.15;8.27;;;;;;;1.97;100.00;101690.19;5206865;28;20033;-66
2023/01/10 05:08:05;;;;;;;13.43;9.07;;;;;;;2.09;100.00;101708.41;5207293;28;20498;-65
2023/01/10 05:10:35;;;;;;;19.17;8.60;;;;;;;2.08;100.00;101712.91;5207104;28;20028;-64
2023/01/10 05:13:05;;;;;;;14.60;7.90;;;;;;;2.06;100.00;101716.75;5206703;28;20068;-65
2023/01/10 05:15:36;;;;;;;16.88;7.55;;;;;;;2.00;100.00;101713.00;5207419;28;20489;-65
2023/01/10 05:18:06;;;;;;;20.98;6.95;;;;;;;1.99;100.00;101704.19;5207187;28;20033;-65
2023/01/10 05:20:37;;;;;;;17.95;6.88;;;;;;;2.03;100.00;101713.44;5206302;28;20025;-65
2023/01/10 05:23:07;;;;;;;15.63;7.80;;;;;;;2.01;100.00;101707.50;5205662;28;20099;-65
2023/01/10 05:25:37;;;;;;;14.50;8.10;;;;;;;1.94;100.00;101716.38;5206919;28;20021;-65
2023/01/10 05:28:08;;;;;;;35.10;8.55;;;;;;;1.87;100.00;101712.75;5189276;28;20036;-65
2023/01/10 05:30:38;;;;;;;12.80;6.38;;;;;;;1.80;100.00;101709.97;5206684;28;20053;-65
2023/01/10 05:33:08;;;;;;;16.08;7.25;;;;;;;1.78;100.00;101727.94;5189205;28;20392;-65
2023/01/10 05:35:39;;;;;;;28.38;9.25;;;;;;;1.72;100.00;101738.50;5214249;28;20024;-65
2023/01/10 05:38:09;;;;;;;8.80;8.00;;;;;;;1.62;100.00;101728.06;5226219;28;20105;-65
2023/01/10 05:40:39;;;;;;;19.38;7.78;;;;;;;1.59;100.00;101733.75;5209371;28;20021;-65
2023/01/10 05:43:11;;;;;;;13.88;7.68;;;;;;;1.61;100.00;101731.75;5222215;28;20358;-65
2023/01/10 05:45:41;;;;;;;13.95;7.18;;;;;;;1.47;100.00;101713.84;5206851;28;20022;-65
2023/01/10 05:48:11;;;;;;;12.82;8.27;;;;;;;1.69;100.00;101753.00;5189631;28;20039;-65
2023/01/10 05:50:42;;;;;;;16.40;8.70;;;;;;;1.58;100.00;101737.41;5188354;28;20029;-65
2023/01/10 05:53:12;;;;;;;10.27;7.22;;;;;;;1.66;100.00;101751.50;5205800;28;20052;-65
2023/01/10 05:55:43;;;;;;;10.73;6.05;;;;;;;1.62;100.00;101750.19;5209135;28;20023;-65
2023/01/10 05:58:13;;;;;;;7.38;6.05;;;;;;;1.55;100.00;101745.75;5226495;28;20067;-65
2023/01/10 06:00:44;;;;;;;18.58;8.82;;;;;;;1.52;100.00;101762.06;5226179;28;20117;-65
2023/01/10 06:03:14;;;;;;;16.77;7.35;;;;;;;1.55;100.00;101775.03;5225656;28;20024;-65
2023/01/10 06:05:45;;;;;;;9.88;8.45;;;;;;;1.46;100.00;101763.56;5214461;28;20500;-65
2023/01/10 06:08:16;;;;;;;14.20;7.93;;;;;;;1.38;100.00;101781.44;5225594;28;20438;-65
2023/01/10 06:10:46;;;;;;;18.05;8.20;;;;;;;1.29;100.00;101778.81;5225624;28;20362;-65
2023/01/10 06:13:16;;;;;;;20.80;8.40;;;;;;;1.25;100.00;101769.50;5207311;28;20051;-65
2023/01/10 06:15:47;;;;;;;19.63;9.43;;;;;;;1.25;100.00;101777.50;5225225;28;20111;-65
2023/01/10 06:18:17;;;;;;;16.98;8.60;;;;;;;1.28;100.00;101768.34;5204675;28;20021;-65
2023/01/10 06:20:48;;;;;;;15.60;7.88;;;;;;;1.32;100.00;101778.47;5217587;28;20021;-65
2023/01/10 06:23:18;;;;;;;21.10;7.30;;;;;;;1.26;100.00;101765.84;5212924;28;20017;-65
2023/01/10 06:25:48;;;;;;;11.95;5.93;;;;;;;1.37;100.00;101774.47;5212407;28;20104;-65
2023/01/10 06:28:19;;;;;;;12.70;9.20;;;;;;;1.32;100.00;101774.97;5219385;28;20021;-65
2023/01/10 06:30:49;;;;;;;9.15;8.18;;;;;;;1.26;100.00;101765.00;5205315;28;20132;-65
2023/01/10 06:33:20;;;;;;;10.80;6.75;;;;;;;1.17;100.00;101763.38;5220407;28;20025;-65
2023/01/10 06:35:50;;;;;;;20.23;8.05;;;;;;;1.23;100.00;101779.47;5215702;28;20486;-65
2023/01/10 06:38:20;;;;;;;12.18;7.65;;;;;;;1.22;100.00;101777.81;5215438;28;20399;-64
2023/01/10 06:40:51;;;;;;;10.75;7.28;;;;;;;1.29;100.00;101785.97;5212858;28;20605;-65
2023/01/10 06:43:21;;;;;;;13.13;8.02;;;;;;;1.29;100.00;101792.09;5205846;28;20037;-65
2023/01/10 06:45:51;;;;;;;12.35;10.45;;;;;;;1.28;100.00;101790.44;5223264;28;20092;-65
2023/01/10 06:48:22;;;;;;;13.00;7.45;;;;;;;1.26;100.00;101792.44;5223363;28;20033;-65
2023/01/10 06:50:52;;;;;;;14.30;8.18;;;;;;;1.37;100.00;101788.59;5224332;28;20029;-65
2023/01/10 06:53:22;;;;;;;11.00;7.80;;;;;;;1.25;100.00;101774.81;5224273;28;20493;-65
2023/01/10 06:55:56;;;;;;;20.33;8.10;;;;;;;1.33;100.00;101798.75;5224709;28;20401;-65
2023/01/10 06:58:26;;;;;;;21.95;8.57;;;;;;;1.29;100.00;101801.91;5224720;28;20020;-65
2023/01/10 07:00:57;;;;;;;20.70;9.70;;;;;;;1.29;100.00;101820.53;5215473;28;20028;-65
2023/01/10 07:03:27;;;;;;;17.83;8.32;;;;;;;1.29;100.00;101829.34;5211058;28;20056;-65
2023/01/10 07:06:02;;;;;;;13.98;7.57;;;;;;;1.27;100.00;101815.41;5208681;28;20048;-65
2023/01/10 07:08:32;;;;;;;13.77;7.43;;;;;;;1.16;100.00;101799.78;5221018;28;20096;-65
2023/01/10 07:11:03;;;;;;;13.38;7.80;;;;;;;1.27;100.00;101826.03;5219366;28;20109;-65
2023/01/10 07:13:34;;;;;;;23.00;9.90;;;;;;;1.23;100.00;101824.72;5212928;28;20051;-64
2023/01/10 07:16:10;;;;;;;15.32;6.90;;;;;;;1.22;100.00;101835.53;5192907;28;20033;-65
2023/01/10 07:18:42;;;;;;;23.27;8.40;;;;;;;1.17;100.00;101836.03;5221017;28;20154;-67
2023/01/10 07:21:12;;;;;;;18.00;8.40;;;;;;;1.11;100.00;101826.09;5220611;28;20029;-64
2023/01/10 07:23:42;;;;;;;18.88;9.32;;;;;;;1.03;100.00;101823.44;5211570;28;20399;-65
2023/01/10 07:26:16;;;;;;;9.38;7.70;;;;;;;1.17;100.00;101857.31;5186062;28;20017;-65
2023/01/10 07:28:51;;;;;;;19.13;8.82;;;;;;;1.21;100.00;101868.44;5214646;28;20033;-65
2023/01/10 07:31:22;;;;;;;31.48;8.80;;;;;;;1.10;100.00;101844.88;5203329;28;20079;-64
2023/01/10 07:33:53;;;;;;;7.75;6.45;;;;;;;1.27;100.00;101863.28;5214007;28;20037;-64
2023/01/10 07:36:23;;;;;;;10.50;7.72;;;;;;;1.38;100.00;101871.91;5208599;28;20020;-65
2023/01/10 07:38:53;;;;;;;26.60;8.40;;;;;;;1.46;100.00;101874.53;5219657;28;20026;-64
2023/01/10 07:41:24;;;;;;;14.27;6.82;;;;;;;1.51;100.00;101881.00;5203067;28;20385;-64
2023/01/10 07:43:54;;;;;;;17.30;7.80;;;;;;;1.54;100.00;101877.19;5221502;28;20025;-64
2023/01/10 07:46:25;;;;;;;26.92;8.43;;;;;;;1.55;100.00;101876.19;5215626;28;20067;-63
2023/01/10 07:48:55;;;;;;;12.52;7.50;;;;;;;1.50;100.00;101883.84;5223819;28;20102;-65
2023/01/10 07:51:26;;;;;;;11.00;9.63;;;;;;;1.58;100.00;101882.00;5216250;28;20116;-65
2023/01/10 07:53:56;;;;;;;25.80;9.20;;;;;;;1.63;100.00;101874.31;5202878;28;20080;-64
2023/01/10 07:56:26;;;;;;;15.30;6.50;;;;;;;1.67;100.00;101880.13;5186067;28;20014;-65
2023/01/10 07:58:57;;;;;;;12.50;6.88;;;;;;;1.64;100.00;101875.97;5204163;28;20112;-64
2023/01/10 08:01:29;;;;;;;10.00;8.82;;;;;;;1.76;100.00;101883.56;5220899;28;20036;-65
2023/01/10 08:03:59;;;;;;;14.20;7.50;;;;;;;1.77;100.00;101874.59;5214627;28;20501;-65
2023/01/10 08:06:30;;;;;;;9.25;8.02;;;;;;;1.69;100.00;101867.47;5207350;28;20025;-65
2023/01/10 08:09:03;;;;;;;19.80;9.55;;;;;;;1.84;100.00;101880.88;5207050;28;20037;-65
2023/01/10 08:11:34;;;;;;;12.48;8.43;;;;;;;1.89;100.00;101884.69;5207498;28;20029;-64
2023/01/10 08:14:04;;;;;;;19.13;9.65;;;;;;;1.97;100.00;101873.19;5189171;28;20389;-65
2023/01/10 08:16:34;;;;;;;21.60;8.95;;;;;;;1.99;100.00;101865.84;5219832;28;20024;-65
2023/01/10 08:19:05;;;;;;;12.90;7.75;;;;;;;2.09;100.00;101870.94;5228503;28;20025;-63
2023/01/10 08:21:35;;;;;;;13.45;8.82;;;;;;;1.67;100.00;101793.09;5210868;28;20070;-66
2023/01/10 08:24:06;;;;;;;21.35;8.60;;;;;;;2.25;100.00;101874.34;5213521;28;20171;-63
2023/01/10 08:26:36;;;;;;;15.63;7.43;;;;;;;2.36;100.00;101875.75;5235885;23;20064;-65
2023/01/10 08:29:07;;;;;;;17.23;8.63;;;;;;;2.41;100.00;101861.88;5216111;28;20448;-64
2023/01/10 08:31:40;;;;;;;13.75;8.00;;;;;;;2.48;100.00;101855.66;5227844;28;20025;-65
2023/01/10 08:34:12;;;;;;;17.45;6.55;;;;;;;2.57;100.00;101857.28;5241297;28;20073;-65
2023/01/10 08:36:42;;;;;;;24.50;9.35;;;;;;;2.70;100.00;101868.16;5228962;28;20109;-65
2023/01/10 08:39:12;;;;;;;21.73;7.45;;;;;;;2.80;100.00;101875.09;5247025;28;20535;-65
2023/01/10 08:41:45;;;;;;;9.60;7.63;;;;;;;2.88;100.00;101872.34;5247719;28;20024;-65
2023/01/10 08:44:16;;;;;;;18.95;9.15;;;;;;;2.92;100.00;101870.97;5244476;28;20020;-65
2023/01/10 08:46:46;;;;;;;17.52;7.55;;;;;;;3.00;100.00;101874.38;5248249;28;20024;-65
2023/01/10 08:49:20;;;;;;;27.95;8.10;;;;;;;3.06;100.00;101875.50;5247940;28;20500;-64
2023/01/10 08:51:50;;;;;;;18.40;6.43;;;;;;;3.04;100.00;101858.84;5229020;28;20043;-64
2023/01/10 08:54:20;;;;;;;9.73;7.63;;;;;;;3.04;100.00;101853.50;5246570;28;20079;-64
2023/01/10 08:56:51;;;;;;;21.88;8.50;;;;;;;3.15;100.00;101870.94;5247830;28;20031;-64
2023/01/10 08:59:21;;;;;;;14.70;6.50;;;;;;;3.19;100.00;101872.19;5247147;28;20025;-64
2023/01/10 09:01:52;;;;;;;16.02;7.40;;;;;;;3.22;100.00;101871.81;5247328;28;20062;-64
2023/01/10 09:04:22;;;;;;;14.07;6.20;;;;;;;3.23;100.00;101860.13;5212771;28;20488;-63
2023/01/10 09:06:53;;;;;;;11.95;8.32;;;;;;;3.29;100.00;101865.59;5232627;28;20028;-65
2023/01/10 09:09:24;;;;;;;18.70;7.40;;;;;;;3.33;100.00;101861.53;5246321;28;20021;-65
2023/01/10 09:11:54;;;;;;;26.60;8.98;;;;;;;3.38;100.00;101861.00;5243711;28;20017;-65
2023/01/10 09:14:24;;;;;;;8.55;7.03;;;;;;;3.38;100.00;101843.13;5246395;28;20085;-65
2023/01/10 09:16:55;;;;;;;12.57;8.02;;;;;;;3.47;100.00;101859.03;5243637;28;20059;-66
2023/01/10 09:19:25;;;;;;;12.93;7.45;;;;;;;3.30;100.00;101816.53;5246156;28;20029;-64
2023/01/10 09:21:56;;;;;;;19.30;8.32;;;;;;;3.57;100.00;101838.22;5245671;28;20033;-65
2023/01/10 09:24:26;;;;;;;21.85;7.97;;;;;;;3.57;100.00;101835.56;5246146;28;20099;-65
2023/01/10 09:26:56;;;;;;;14.10;7.32;;;;;;;3.70;100.00;101838.41;5227946;28;20021;-65
2023/01/10 09:29:27;;;;;;;8.02;5.80;;;;;;;3.79;100.00;101841.78;5245632;28;20132;-66
2023/01/10 09:31:57;;;;;;;10.50;5.57;;;;;;;3.84;100.00;101840.22;5245591;28;20384;-65
2023/01/10 09:37:18;;;;;;;10.80;7.35;;;;;;;3.48;100.00;101757.38;5263635;28;20048;-64
2023/01/10 09:39:48;;;;;;;22.88;7.00;;;;;;;3.97;100.00;101827.00;5266835;28;20031;-64
2023/01/10 09:42:34;;;;;;;20.27;7.63;;;;;;;4.02;100.00;101832.63;5266657;28;20023;-64
2023/01/10 09:45:20;;;;;;;15.88;7.13;;;;;;;4.08;100.00;101823.81;5248664;28;20025;-64
2023/01/10 09:48:07;;;;;;;5.30;4.88;;;;;;;4.11;100.00;101814.59;5244338;28;20027;-64
2023/01/10 09:51:00;;;;;;;13.77;7.57;;;;;;;4.21;100.00;101828.50;5245051;28;20070;-65
2023/01/10 09:53:33;;;;;;;15.13;7.32;;;;;;;4.28;100.00;101818.69;5224943;28;20500;-64
2023/01/10 09:56:05;;;;;;;17.75;5.95;;;;;;;4.37;100.00;101806.00;5243096;28;20438;-65
2023/01/10 09:58:40;;;;;;;18.35;7.40;;;;;;;4.35;100.00;101792.81;5242036;28;20086;-64
2023/01/10 10:01:17;;;;;;;19.92;8.00;;;;;;;4.46;100.00;101798.69;5245576;28;20047;-64
2023/01/10 10:04:05;;;;;;;19.15;7.30;;;;;;;4.58;100.00;101808.69;5224484;28;20427;-64
2023/01/10 10:06:36;;;;;;;8.63;6.32;;;;;;;4.63;100.00;101802.72;5243561;28;20377;-64
2023/01/10 10:09:13;;;;;;;9.48;8.10;;;;;;;4.62;100.00;101791.19;5244933;28;20028;-63
2023/01/10 10:11:56;;;;;;;5.78;5.28;;;;;;;4.62;100.00;101782.38;5237425;28;20020;-64
2023/01/10 10:14:56;;;;;;;13.52;6.47;;;;;;;4.74;100.00;101792.34;5245155;28;20024;-65
2023/01/10 10:17:29;;;;;;;;;;;;;;;4.80;100.00;101793.41;5225033;28;20027;-64
2023/01/10 10:20:23;;;;;;;11.63;7.78;;;;;;;4.82;100.00;101794.03;5224780;28;19975;-63
2023/01/10 10:23:24;;;;;;;9.75;5.80;;;;;;;4.84;100.00;101799.19;5243579;28;20417;-65
2023/01/10 10:26:04;;;;;;;15.27;7.72;;;;;;;4.66;100.00;101760.34;5239372;28;20344;-64
2023/01/10 10:28:50;;;;;;;7.05;6.50;;;;;;;4.94;100.00;101779.06;5245236;28;20048;-63
2023/01/10 10:31:47;;;;;;;14.13;7.13;;;;;;;5.06;100.00;101771.34;5243552;28;20506;-64
2023/01/10 10:34:35;;;;;;;8.40;6.80;;;;;;;5.13;100.00;101771.38;5240738;28;20169;-64
2023/01/10 10:37:19;;;;;;;14.80;6.43;;;;;;;5.15;100.00;101759.44;5242815;28;20115;-64
2023/01/10 10:40:01;;;;;;;17.23;8.05;;;;;;;5.28;100.00;101758.66;5245290;28;20016;-64
2023/01/10 10:42:39;;;;;;;18.77;8.77;;;;;;;5.26;100.00;101750.00;5238285;28;20029;-63
2023/01/10 10:45:45;;;;;;;28.02;9.02;;;;;;;5.40;100.00;101752.56;5224931;28;20384;-64
2023/01/10 10:48:23;;;;;;;17.80;7.07;;;;;;;5.45;100.00;101748.47;5216401;28;20036;-64
2023/01/10 10:51:07;;;;;;;12.30;7.25;;;;;;;5.53;100.00;101740.22;5232476;28;20428;-63
2023/01/10 10:53:37;;;;;;;14.35;7.07;;;;;;;5.61;100.00;101727.47;5244048;28;20024;-65
2023/01/10 10:56:14;;;;;;;10.77;7.70;;;;;;;5.71;100.00;101735.13;5244862;28;20012;-63
2023/01/10 10:58:50;;;;;;;11.98;7.97;;;;;;;5.72;100.00;101718.84;5225773;28;20017;-63
2023/01/10 11:01:21;;;;;;;24.65;7.47;;;;;;;5.77;100.00;101728.97;5228470;28;20111;-64
2023/01/10 11:03:59;;;;;;;12.80;6.68;;;;;;;5.84;100.00;101702.97;5244342;28;20037;-63
2023/01/10 11:06:34;;;;;;;10.43;7.60;;;;;;;5.88;100.00;101700.72;5233956;28;20377;-63
2023/01/10 11:09:06;;;;;;;14.27;8.75;;;;;;;5.93;100.00;101704.47;5240554;28;20040;-64
2023/01/10 11:11:39;;;;;;;13.20;7.90;;;;;;;5.88;100.00;101696.19;5221056;28;20050;-64
2023/01/10 11:14:11;;;;;;;11.00;5.60;;;;;;;5.91;100.00;101703.84;5244580;28;20021;-64
2023/01/10 11:16:43;;;;;;;12.13;7.07;;;;;;;5.96;100.00;101700.56;5244553;28;20020;-64
2023/01/10 11:19:21;;;;;;;14.52;6.22;;;;;;;5.99;100.00;101698.31;5226474;28;20081;-65
2023/01/10 11:22:01;;;;;;;13.98;7.85;;;;;;;6.05;100.00;101693.97;5231094;28;20032;-66
2023/01/10 11:24:33;;;;;;;;;;;;;;;6.12;100.00;101697.47;5235651;28;20404;-63
2023/01/10 11:27:19;;;;;;;8.27;6.55;;;;;;;6.20;100.00;101691.09;5226455;28;19919;-66
2023/01/10 11:30:02;;;;;;;15.60;7.00;;;;;;;6.24;100.00;101689.63;5235477;28;20399;-65
2023/01/10 11:32:50;;;;;;;12.88;7.45;;;;;;;6.25;100.00;101683.25;5226825;28;20027;-64
2023/01/10 11:35:27;;;;;;;12.88;7.78;;;;;;;6.30;100.00;101684.28;5233904;28;20507;-65
2023/01/10 11:38:14;;;;;;;21.30;8.95;;;;;;;6.28;100.00;101680.97;5251131;22;20482;-63
2023/01/10 11:40:55;;;;;;;30.00;8.30;;;;;;;6.16;100.00;101657.66;5236640;28;20029;-65
2023/01/10 11:43:39;;;;;;;6.28;5.35;;;;;;;6.30;100.00;101689.66;5245633;28;20028;-64
2023/01/10 11:46:20;;;;;;;14.75;6.68;;;;;;;6.26;100.00;101690.25;5229421;28;20474;-64
2023/01/10 11:49:18;;;;;;;11.68;6.00;;;;;;;6.27;100.00;101686.53;5204752;28;20033;-64
2023/01/10 11:51:51;;;;;;;10.95;6.72;;;;;;;6.27;100.00;101675.81;5209332;28;20064;-66
2023/01/10 11:54:24;;;;;;;7.47;6.68;;;;;;;6.25;100.00;101659.94;5206123;28;20029;-66
2023/01/10 11:56:57;;;;;;;8.18;7.45;;;;;;;6.33;100.00;101658.91;5224336;28;20017;-63